sensor_id;sensor_type;location;lat;lon;timestamp;P1;durP1;ratioP1;P2;durP2;ratioP2
55136;SDS011;41032;47.818;-3.732;2022-10-31T00:01:17;4.63;;;1.63;;
55136;SDS011;41032;47.818;-3.732;2022-10-31T00:03:47;5.75;;;1.40;;
55136;SDS011;41032;47.818;-3.732;2022-10-31T00:06:15;4.38;;;1.17;;
55136;SDS011;41032;47.818;-3.732;2022-10-31T00:08:51;3.53;;;0.93;;
55136;SDS011;41032;47.818;-3.732;2022-10-31T00:11:21;3.78;;;1.17;;
55136;SDS011;41032;47.818;-3.732;2022-10-31T00:13:50;4.00;;;1.15;;
55136;SDS011;41032;47.818;-3.732;2022-10-31T00:16:19;6.10;;;1.20;;
55136;SDS011;41032;47.818;-3.732;2022-10-31T00:18:49;5.80;;;1.17;;
55136;SDS011;41032;47.818;-3.732;2022-10-31T00:21:18;5.20;;;1.67;;
55136;SDS011;41032;47.818;-3.732;2022-10-31T00:23:48;3.70;;;1.23;;
55136;SDS011;41032;47.818;-3.732;2022-10-31T00:26:16;7.68;;;1.98;;
55136;SDS011;41032;47.818;-3.732;2022-10-31T00:28:45;4.80;;;1.30;;
55136;SDS011;41032;47.818;-3.732;2022-10-31T00:31:14;4.40;;;1.10;;
55136;SDS011;41032;47.818;-3.732;2022-10-31T00:33:42;6.18;;;1.40;;
55136;SDS011;41032;47.818;-3.732;2022-10-31T00:36:12;4.93;;;1.48;;
55136;SDS011;41032;47.818;-3.732;2022-10-31T00:38:42;5.03;;;1.27;;
55136;SDS011;41032;47.818;-3.732;2022-10-31T00:41:10;5.22;;;1.65;;
55136;SDS011;41032;47.818;-3.732;2022-10-31T00:43:40;7.15;;;1.38;;
55136;SDS011;41032;47.818;-3.732;2022-10-31T00:46:09;4.85;;;1.48;;
55136;SDS011;41032;47.818;-3.732;2022-10-31T00:48:38;8.68;;;1.80;;
55136;SDS011;41032;47.818;-3.732;2022-10-31T00:51:07;7.72;;;1.80;;
55136;SDS011;41032;47.818;-3.732;2022-10-31T00:53:36;4.25;;;1.38;;
55136;SDS011;41032;47.818;-3.732;2022-10-31T00:56:04;4.20;;;1.15;;
55136;SDS011;41032;47.818;-3.732;2022-10-31T00:58:33;4.88;;;1.33;;
55136;SDS011;41032;47.818;-3.732;2022-10-31T01:01:02;4.75;;;1.38;;
55136;SDS011;41032;47.818;-3.732;2022-10-31T01:03:31;5.88;;;1.40;;
55136;SDS011;41032;47.818;-3.732;2022-10-31T01:06:02;4.47;;;1.35;;
55136;SDS011;41032;47.818;-3.732;2022-10-31T01:08:33;5.32;;;1.65;;
55136;SDS011;41032;47.818;-3.732;2022-10-31T01:13:35;2.97;;;1.25;;
55136;SDS011;41032;47.818;-3.732;2022-10-31T01:16:04;4.80;;;1.17;;
55136;SDS011;41032;47.818;-3.732;2022-10-31T01:18:34;5.15;;;1.40;;
55136;SDS011;41032;47.818;-3.732;2022-10-31T01:23:32;6.40;;;1.50;;
55136;SDS011;41032;47.818;-3.732;2022-10-31T01:26:03;5.75;;;1.40;;
55136;SDS011;41032;47.818;-3.732;2022-10-31T01:28:34;4.18;;;1.13;;
55136;SDS011;41032;47.818;-3.732;2022-10-31T01:31:04;5.18;;;1.50;;
55136;SDS011;41032;47.818;-3.732;2022-10-31T01:33:34;5.20;;;1.40;;
55136;SDS011;41032;47.818;-3.732;2022-10-31T01:38:42;4.57;;;1.30;;
55136;SDS011;41032;47.818;-3.732;2022-10-31T01:41:12;4.40;;;1.10;;
55136;SDS011;41032;47.818;-3.732;2022-10-31T01:46:23;4.00;;;1.08;;
55136;SDS011;41032;47.818;-3.732;2022-10-31T01:48:55;4.35;;;1.00;;
55136;SDS011;41032;47.818;-3.732;2022-10-31T01:51:25;3.63;;;1.15;;
55136;SDS011;41032;47.818;-3.732;2022-10-31T01:53:58;4.80;;;1.15;;
55136;SDS011;41032;47.818;-3.732;2022-10-31T01:56:29;3.95;;;0.90;;
55136;SDS011;41032;47.818;-3.732;2022-10-31T01:58:58;5.28;;;1.38;;
55136;SDS011;41032;47.818;-3.732;2022-10-31T02:01:27;4.75;;;1.02;;
55136;SDS011;41032;47.818;-3.732;2022-10-31T02:03:55;3.95;;;1.00;;
55136;SDS011;41032;47.818;-3.732;2022-10-31T02:06:30;4.40;;;1.00;;
55136;SDS011;41032;47.818;-3.732;2022-10-31T02:09:12;4.63;;;1.20;;
55136;SDS011;41032;47.818;-3.732;2022-10-31T02:11:41;3.40;;;1.30;;
55136;SDS011;41032;47.818;-3.732;2022-10-31T02:14:09;3.03;;;0.80;;
55136;SDS011;41032;47.818;-3.732;2022-10-31T02:16:38;4.18;;;1.40;;
55136;SDS011;41032;47.818;-3.732;2022-10-31T02:19:06;4.53;;;1.42;;
55136;SDS011;41032;47.818;-3.732;2022-10-31T02:21:47;3.78;;;0.80;;
55136;SDS011;41032;47.818;-3.732;2022-10-31T02:24:33;2.58;;;0.82;;
55136;SDS011;41032;47.818;-3.732;2022-10-31T02:27:51;2.92;;;1.00;;
55136;SDS011;41032;47.818;-3.732;2022-10-31T02:36:28;3.60;;;0.93;;
55136;SDS011;41032;47.818;-3.732;2022-10-31T02:39:11;4.32;;;1.08;;
55136;SDS011;41032;47.818;-3.732;2022-10-31T02:41:46;3.88;;;1.10;;
55136;SDS011;41032;47.818;-3.732;2022-10-31T02:47:02;2.95;;;0.63;;
55136;SDS011;41032;47.818;-3.732;2022-10-31T02:52:27;5.60;;;1.10;;
55136;SDS011;41032;47.818;-3.732;2022-10-31T02:54:55;3.03;;;0.60;;
55136;SDS011;41032;47.818;-3.732;2022-10-31T02:57:24;3.47;;;1.25;;
55136;SDS011;41032;47.818;-3.732;2022-10-31T03:00:07;4.15;;;0.88;;
55136;SDS011;41032;47.818;-3.732;2022-10-31T03:06:03;3.05;;;0.90;;
55136;SDS011;41032;47.818;-3.732;2022-10-31T03:08:36;3.63;;;0.90;;
55136;SDS011;41032;47.818;-3.732;2022-10-31T03:11:28;3.22;;;1.17;;
55136;SDS011;41032;47.818;-3.732;2022-10-31T03:14:00;2.97;;;0.93;;
55136;SDS011;41032;47.818;-3.732;2022-10-31T03:19:15;2.58;;;0.90;;
55136;SDS011;41032;47.818;-3.732;2022-10-31T03:21:47;4.07;;;0.90;;
55136;SDS011;41032;47.818;-3.732;2022-10-31T03:24:19;2.00;;;0.80;;
55136;SDS011;41032;47.818;-3.732;2022-10-31T03:26:50;2.58;;;0.80;;
55136;SDS011;41032;47.818;-3.732;2022-10-31T03:29:20;2.67;;;0.85;;
55136;SDS011;41032;47.818;-3.732;2022-10-31T03:31:55;2.75;;;0.98;;
55136;SDS011;41032;47.818;-3.732;2022-10-31T03:34:27;2.95;;;0.93;;
55136;SDS011;41032;47.818;-3.732;2022-10-31T03:36:57;2.13;;;0.65;;
55136;SDS011;41032;47.818;-3.732;2022-10-31T03:39:27;6.40;;;1.13;;
55136;SDS011;41032;47.818;-3.732;2022-10-31T03:41:58;2.47;;;0.70;;
55136;SDS011;41032;47.818;-3.732;2022-10-31T03:44:30;3.03;;;0.80;;
55136;SDS011;41032;47.818;-3.732;2022-10-31T03:47:00;3.28;;;1.10;;
55136;SDS011;41032;47.818;-3.732;2022-10-31T03:49:28;3.60;;;1.15;;
55136;SDS011;41032;47.818;-3.732;2022-10-31T03:51:59;4.40;;;1.02;;
55136;SDS011;41032;47.818;-3.732;2022-10-31T03:54:53;2.97;;;0.70;;
55136;SDS011;41032;47.818;-3.732;2022-10-31T03:57:25;4.50;;;1.13;;
55136;SDS011;41032;47.818;-3.732;2022-10-31T04:00:13;3.45;;;0.77;;
55136;SDS011;41032;47.818;-3.732;2022-10-31T04:02:43;3.28;;;0.70;;
55136;SDS011;41032;47.818;-3.732;2022-10-31T04:05:17;3.08;;;0.77;;
55136;SDS011;41032;47.818;-3.732;2022-10-31T04:07:46;2.75;;;0.90;;
55136;SDS011;41032;47.818;-3.732;2022-10-31T04:10:18;3.20;;;0.80;;
55136;SDS011;41032;47.818;-3.732;2022-10-31T04:12:48;3.67;;;1.00;;
55136;SDS011;41032;47.818;-3.732;2022-10-31T04:15:19;2.75;;;0.95;;
55136;SDS011;41032;47.818;-3.732;2022-10-31T04:17:48;2.55;;;0.82;;
55136;SDS011;41032;47.818;-3.732;2022-10-31T04:20:18;2.35;;;0.77;;
55136;SDS011;41032;47.818;-3.732;2022-10-31T04:22:55;6.53;;;0.70;;
55136;SDS011;41032;47.818;-3.732;2022-10-31T04:25:24;2.45;;;0.80;;
55136;SDS011;41032;47.818;-3.732;2022-10-31T04:27:51;4.60;;;0.77;;
55136;SDS011;41032;47.818;-3.732;2022-10-31T04:30:20;3.03;;;0.70;;
55136;SDS011;41032;47.818;-3.732;2022-10-31T04:32:48;2.30;;;0.57;;
55136;SDS011;41032;47.818;-3.732;2022-10-31T04:35:17;2.28;;;1.08;;
55136;SDS011;41032;47.818;-3.732;2022-10-31T04:37:45;2.20;;;0.82;;
55136;SDS011;41032;47.818;-3.732;2022-10-31T04:40:14;2.38;;;0.88;;
55136;SDS011;41032;47.818;-3.732;2022-10-31T04:42:42;3.72;;;1.05;;
55136;SDS011;41032;47.818;-3.732;2022-10-31T04:45:11;2.70;;;0.90;;
55136;SDS011;41032;47.818;-3.732;2022-10-31T04:47:39;2.35;;;0.70;;
55136;SDS011;41032;47.818;-3.732;2022-10-31T04:50:07;2.58;;;0.77;;
55136;SDS011;41032;47.818;-3.732;2022-10-31T04:52:39;3.08;;;0.90;;
55136;SDS011;41032;47.818;-3.732;2022-10-31T04:55:08;1.67;;;0.43;;
55136;SDS011;41032;47.818;-3.732;2022-10-31T04:57:41;2.28;;;0.85;;
55136;SDS011;41032;47.818;-3.732;2022-10-31T05:00:10;3.50;;;0.70;;
55136;SDS011;41032;47.818;-3.732;2022-10-31T05:05:13;3.55;;;1.20;;
55136;SDS011;41032;47.818;-3.732;2022-10-31T05:07:43;3.35;;;1.00;;
55136;SDS011;41032;47.818;-3.732;2022-10-31T05:10:13;1.92;;;0.52;;
55136;SDS011;41032;47.818;-3.732;2022-10-31T05:12:45;3.20;;;0.90;;
55136;SDS011;41032;47.818;-3.732;2022-10-31T05:15:16;2.38;;;0.77;;
55136;SDS011;41032;47.818;-3.732;2022-10-31T05:17:45;4.18;;;1.25;;
55136;SDS011;41032;47.818;-3.732;2022-10-31T05:20:13;4.30;;;0.90;;
55136;SDS011;41032;47.818;-3.732;2022-10-31T05:22:43;4.32;;;0.77;;
55136;SDS011;41032;47.818;-3.732;2022-10-31T05:25:13;3.67;;;0.98;;
55136;SDS011;41032;47.818;-3.732;2022-10-31T05:27:43;1.83;;;0.73;;
55136;SDS011;41032;47.818;-3.732;2022-10-31T05:30:14;2.00;;;0.70;;
55136;SDS011;41032;47.818;-3.732;2022-10-31T05:32:45;1.92;;;0.73;;
55136;SDS011;41032;47.818;-3.732;2022-10-31T05:35:15;2.10;;;0.50;;
55136;SDS011;41032;47.818;-3.732;2022-10-31T05:37:45;2.25;;;0.60;;
55136;SDS011;41032;47.818;-3.732;2022-10-31T05:40:14;2.67;;;1.10;;
55136;SDS011;41032;47.818;-3.732;2022-10-31T05:42:43;3.38;;;1.00;;
55136;SDS011;41032;47.818;-3.732;2022-10-31T05:45:14;3.40;;;0.90;;
55136;SDS011;41032;47.818;-3.732;2022-10-31T05:47:49;3.08;;;0.60;;
55136;SDS011;41032;47.818;-3.732;2022-10-31T05:52:45;6.20;;;1.00;;
55136;SDS011;41032;47.818;-3.732;2022-10-31T05:55:13;3.63;;;0.90;;
55136;SDS011;41032;47.818;-3.732;2022-10-31T05:57:41;2.13;;;0.70;;
55136;SDS011;41032;47.818;-3.732;2022-10-31T06:00:09;3.85;;;0.90;;
55136;SDS011;41032;47.818;-3.732;2022-10-31T06:02:37;3.65;;;1.08;;
55136;SDS011;41032;47.818;-3.732;2022-10-31T06:05:05;1.40;;;0.73;;
55136;SDS011;41032;47.818;-3.732;2022-10-31T06:07:33;1.73;;;0.55;;
55136;SDS011;41032;47.818;-3.732;2022-10-31T06:10:03;3.58;;;0.52;;
55136;SDS011;41032;47.818;-3.732;2022-10-31T06:12:32;2.45;;;0.60;;
55136;SDS011;41032;47.818;-3.732;2022-10-31T06:15:04;2.03;;;0.63;;
55136;SDS011;41032;47.818;-3.732;2022-10-31T06:17:32;2.78;;;0.80;;
55136;SDS011;41032;47.818;-3.732;2022-10-31T06:20:01;2.00;;;0.80;;
55136;SDS011;41032;47.818;-3.732;2022-10-31T06:22:30;3.17;;;0.80;;
55136;SDS011;41032;47.818;-3.732;2022-10-31T06:24:59;3.53;;;1.00;;
55136;SDS011;41032;47.818;-3.732;2022-10-31T06:27:27;6.50;;;1.00;;
55136;SDS011;41032;47.818;-3.732;2022-10-31T06:29:54;1.95;;;0.80;;
55136;SDS011;41032;47.818;-3.732;2022-10-31T06:32:23;2.40;;;0.75;;
55136;SDS011;41032;47.818;-3.732;2022-10-31T06:34:51;2.45;;;0.75;;
55136;SDS011;41032;47.818;-3.732;2022-10-31T06:37:20;2.58;;;0.75;;
55136;SDS011;41032;47.818;-3.732;2022-10-31T06:39:48;4.25;;;0.93;;
55136;SDS011;41032;47.818;-3.732;2022-10-31T06:42:17;2.15;;;0.55;;
55136;SDS011;41032;47.818;-3.732;2022-10-31T06:44:45;2.20;;;0.90;;
55136;SDS011;41032;47.818;-3.732;2022-10-31T06:47:14;2.95;;;0.70;;
55136;SDS011;41032;47.818;-3.732;2022-10-31T06:49:42;2.80;;;0.65;;
55136;SDS011;41032;47.818;-3.732;2022-10-31T06:52:11;2.63;;;0.77;;
55136;SDS011;41032;47.818;-3.732;2022-10-31T06:54:39;3.72;;;0.98;;
55136;SDS011;41032;47.818;-3.732;2022-10-31T06:57:08;3.88;;;0.60;;
55136;SDS011;41032;47.818;-3.732;2022-10-31T06:59:36;6.43;;;1.00;;
55136;SDS011;41032;47.818;-3.732;2022-10-31T07:02:04;2.08;;;0.70;;
55136;SDS011;41032;47.818;-3.732;2022-10-31T07:04:34;2.72;;;1.00;;
55136;SDS011;41032;47.818;-3.732;2022-10-31T07:07:02;2.03;;;0.68;;
55136;SDS011;41032;47.818;-3.732;2022-10-31T07:09:30;3.20;;;0.90;;
55136;SDS011;41032;47.818;-3.732;2022-10-31T07:11:59;2.80;;;0.90;;
55136;SDS011;41032;47.818;-3.732;2022-10-31T07:14:27;2.67;;;1.00;;
55136;SDS011;41032;47.818;-3.732;2022-10-31T07:16:56;3.88;;;0.70;;
55136;SDS011;41032;47.818;-3.732;2022-10-31T07:19:24;2.28;;;0.73;;
55136;SDS011;41032;47.818;-3.732;2022-10-31T07:21:53;3.53;;;1.30;;
55136;SDS011;41032;47.818;-3.732;2022-10-31T07:24:21;5.05;;;1.00;;
55136;SDS011;41032;47.818;-3.732;2022-10-31T07:26:48;5.00;;;1.13;;
55136;SDS011;41032;47.818;-3.732;2022-10-31T07:29:15;1.58;;;0.75;;
55136;SDS011;41032;47.818;-3.732;2022-10-31T07:31:42;1.70;;;0.65;;
55136;SDS011;41032;47.818;-3.732;2022-10-31T07:34:12;2.50;;;0.85;;
55136;SDS011;41032;47.818;-3.732;2022-10-31T07:36:40;2.28;;;0.68;;
55136;SDS011;41032;47.818;-3.732;2022-10-31T07:39:07;4.72;;;1.33;;
55136;SDS011;41032;47.818;-3.732;2022-10-31T07:41:35;3.00;;;0.77;;
55136;SDS011;41032;47.818;-3.732;2022-10-31T07:44:02;2.10;;;1.02;;
55136;SDS011;41032;47.818;-3.732;2022-10-31T07:46:29;2.92;;;0.88;;
55136;SDS011;41032;47.818;-3.732;2022-10-31T07:48:58;2.25;;;0.80;;
55136;SDS011;41032;47.818;-3.732;2022-10-31T07:51:26;2.63;;;0.90;;
55136;SDS011;41032;47.818;-3.732;2022-10-31T07:53:54;2.35;;;0.63;;
55136;SDS011;41032;47.818;-3.732;2022-10-31T07:56:23;2.80;;;0.75;;
55136;SDS011;41032;47.818;-3.732;2022-10-31T07:58:51;2.20;;;0.70;;
55136;SDS011;41032;47.818;-3.732;2022-10-31T08:01:19;3.53;;;0.93;;
55136;SDS011;41032;47.818;-3.732;2022-10-31T08:03:48;2.67;;;0.70;;
55136;SDS011;41032;47.818;-3.732;2022-10-31T08:06:16;2.70;;;0.70;;
55136;SDS011;41032;47.818;-3.732;2022-10-31T08:08:44;3.03;;;0.90;;
55136;SDS011;41032;47.818;-3.732;2022-10-31T08:11:13;3.10;;;0.60;;
55136;SDS011;41032;47.818;-3.732;2022-10-31T08:13:41;2.97;;;0.55;;
55136;SDS011;41032;47.818;-3.732;2022-10-31T08:16:10;2.35;;;0.95;;
55136;SDS011;41032;47.818;-3.732;2022-10-31T08:18:38;2.70;;;0.73;;
55136;SDS011;41032;47.818;-3.732;2022-10-31T08:21:07;2.35;;;0.80;;
55136;SDS011;41032;47.818;-3.732;2022-10-31T08:23:36;3.88;;;0.98;;
55136;SDS011;41032;47.818;-3.732;2022-10-31T08:26:04;4.15;;;1.02;;
55136;SDS011;41032;47.818;-3.732;2022-10-31T08:28:32;4.43;;;0.80;;
55136;SDS011;41032;47.818;-3.732;2022-10-31T08:31:00;2.95;;;0.80;;
55136;SDS011;41032;47.818;-3.732;2022-10-31T08:33:28;3.60;;;0.95;;
55136;SDS011;41032;47.818;-3.732;2022-10-31T08:35:57;3.00;;;0.60;;
55136;SDS011;41032;47.818;-3.732;2022-10-31T08:38:26;2.58;;;0.63;;
55136;SDS011;41032;47.818;-3.732;2022-10-31T08:40:54;5.20;;;1.02;;
55136;SDS011;41032;47.818;-3.732;2022-10-31T08:43:23;2.00;;;0.70;;
55136;SDS011;41032;47.818;-3.732;2022-10-31T08:45:51;2.10;;;0.60;;
55136;SDS011;41032;47.818;-3.732;2022-10-31T08:48:20;1.95;;;0.88;;
55136;SDS011;41032;47.818;-3.732;2022-10-31T08:50:49;8.68;;;0.90;;
55136;SDS011;41032;47.818;-3.732;2022-10-31T08:53:18;2.15;;;0.93;;
55136;SDS011;41032;47.818;-3.732;2022-10-31T08:55:47;1.38;;;0.50;;
55136;SDS011;41032;47.818;-3.732;2022-10-31T08:58:16;2.25;;;0.88;;
55136;SDS011;41032;47.818;-3.732;2022-10-31T09:00:47;2.38;;;0.80;;
55136;SDS011;41032;47.818;-3.732;2022-10-31T09:03:18;1.35;;;0.60;;
55136;SDS011;41032;47.818;-3.732;2022-10-31T09:05:48;3.85;;;0.82;;
55136;SDS011;41032;47.818;-3.732;2022-10-31T09:08:17;2.33;;;0.70;;
55136;SDS011;41032;47.818;-3.732;2022-10-31T09:10:45;1.20;;;0.50;;
55136;SDS011;41032;47.818;-3.732;2022-10-31T09:13:14;1.50;;;0.77;;
55136;SDS011;41032;47.818;-3.732;2022-10-31T09:15:50;3.20;;;1.00;;
55136;SDS011;41032;47.818;-3.732;2022-10-31T09:18:18;1.40;;;0.63;;
55136;SDS011;41032;47.818;-3.732;2022-10-31T09:20:47;1.50;;;0.50;;
55136;SDS011;41032;47.818;-3.732;2022-10-31T09:23:19;3.53;;;0.75;;
55136;SDS011;41032;47.818;-3.732;2022-10-31T09:25:49;3.55;;;0.77;;
55136;SDS011;41032;47.818;-3.732;2022-10-31T09:28:19;2.58;;;0.73;;
55136;SDS011;41032;47.818;-3.732;2022-10-31T09:30:50;2.33;;;0.80;;
55136;SDS011;41032;47.818;-3.732;2022-10-31T09:33:19;1.88;;;0.77;;
55136;SDS011;41032;47.818;-3.732;2022-10-31T09:35:47;3.10;;;0.77;;
55136;SDS011;41032;47.818;-3.732;2022-10-31T09:38:16;2.17;;;0.90;;
55136;SDS011;41032;47.818;-3.732;2022-10-31T09:40:47;3.75;;;0.98;;
55136;SDS011;41032;47.818;-3.732;2022-10-31T09:45:54;2.00;;;0.82;;
55136;SDS011;41032;47.818;-3.732;2022-10-31T09:51:00;1.27;;;0.82;;
55136;SDS011;41032;47.818;-3.732;2022-10-31T09:56:16;1.88;;;0.80;;
55136;SDS011;41032;47.818;-3.732;2022-10-31T09:58:48;4.65;;;1.27;;
55136;SDS011;41032;47.818;-3.732;2022-10-31T10:01:33;1.35;;;0.80;;
55136;SDS011;41032;47.818;-3.732;2022-10-31T10:04:43;2.92;;;0.95;;
55136;SDS011;41032;47.818;-3.732;2022-10-31T10:07:13;1.52;;;0.77;;
55136;SDS011;41032;47.818;-3.732;2022-10-31T10:09:45;2.25;;;0.80;;
55136;SDS011;41032;47.818;-3.732;2022-10-31T10:12:16;2.60;;;0.90;;
55136;SDS011;41032;47.818;-3.732;2022-10-31T10:20:59;1.63;;;0.85;;
55136;SDS011;41032;47.818;-3.732;2022-10-31T10:24:17;1.88;;;0.77;;
55136;SDS011;41032;47.818;-3.732;2022-10-31T10:26:38;3.10;;;0.80;;
55136;SDS011;41032;47.818;-3.732;2022-10-31T10:31:40;1.45;;;0.93;;
55136;SDS011;41032;47.818;-3.732;2022-10-31T10:34:22;1.88;;;0.98;;
55136;SDS011;41032;47.818;-3.732;2022-10-31T10:37:24;2.80;;;1.20;;
55136;SDS011;41032;47.818;-3.732;2022-10-31T10:40:06;5.28;;;1.27;;
55136;SDS011;41032;47.818;-3.732;2022-10-31T10:42:38;5.30;;;1.40;;
55136;SDS011;41032;47.818;-3.732;2022-10-31T10:45:25;2.92;;;1.10;;
55136;SDS011;41032;47.818;-3.732;2022-10-31T10:48:14;2.95;;;1.40;;
55136;SDS011;41032;47.818;-3.732;2022-10-31T10:50:46;2.47;;;1.25;;
55136;SDS011;41032;47.818;-3.732;2022-10-31T10:58:51;3.47;;;1.10;;
55136;SDS011;41032;47.818;-3.732;2022-10-31T11:01:22;4.07;;;1.20;;
55136;SDS011;41032;47.818;-3.732;2022-10-31T11:03:51;4.18;;;1.48;;
55136;SDS011;41032;47.818;-3.732;2022-10-31T11:06:21;3.05;;;1.42;;
55136;SDS011;41032;47.818;-3.732;2022-10-31T11:08:52;3.40;;;1.50;;
55136;SDS011;41032;47.818;-3.732;2022-10-31T11:11:29;4.05;;;1.40;;
55136;SDS011;41032;47.818;-3.732;2022-10-31T11:14:03;2.63;;;1.10;;
55136;SDS011;41032;47.818;-3.732;2022-10-31T11:16:35;2.42;;;1.40;;
55136;SDS011;41032;47.818;-3.732;2022-10-31T11:19:06;2.50;;;1.20;;
55136;SDS011;41032;47.818;-3.732;2022-10-31T11:21:35;3.25;;;1.30;;
55136;SDS011;41032;47.818;-3.732;2022-10-31T11:26:38;6.50;;;1.75;;
55136;SDS011;41032;47.818;-3.732;2022-10-31T11:29:12;3.45;;;1.15;;
55136;SDS011;41032;47.818;-3.732;2022-10-31T11:31:43;6.22;;;2.15;;
55136;SDS011;41032;47.818;-3.732;2022-10-31T11:34:14;4.45;;;1.40;;
55136;SDS011;41032;47.818;-3.732;2022-10-31T11:37:04;4.53;;;1.60;;
55136;SDS011;41032;47.818;-3.732;2022-10-31T11:39:40;3.58;;;1.63;;
55136;SDS011;41032;47.818;-3.732;2022-10-31T11:42:11;3.40;;;1.20;;
55136;SDS011;41032;47.818;-3.732;2022-10-31T11:44:41;5.43;;;1.83;;
55136;SDS011;41032;47.818;-3.732;2022-10-31T11:47:12;3.08;;;1.25;;
55136;SDS011;41032;47.818;-3.732;2022-10-31T11:49:43;4.13;;;1.50;;
55136;SDS011;41032;47.818;-3.732;2022-10-31T11:52:20;5.03;;;2.03;;
55136;SDS011;41032;47.818;-3.732;2022-10-31T11:54:57;3.85;;;1.75;;
55136;SDS011;41032;47.818;-3.732;2022-10-31T11:57:29;5.55;;;1.73;;
55136;SDS011;41032;47.818;-3.732;2022-10-31T12:00:00;2.65;;;1.30;;
55136;SDS011;41032;47.818;-3.732;2022-10-31T12:02:47;6.32;;;1.92;;
55136;SDS011;41032;47.818;-3.732;2022-10-31T12:05:25;4.28;;;2.03;;
55136;SDS011;41032;47.818;-3.732;2022-10-31T12:07:59;6.22;;;1.98;;
55136;SDS011;41032;47.818;-3.732;2022-10-31T12:10:31;3.17;;;1.80;;
55136;SDS011;41032;47.818;-3.732;2022-10-31T12:16:05;5.68;;;1.98;;
55136;SDS011;41032;47.818;-3.732;2022-10-31T12:18:58;7.05;;;2.25;;
55136;SDS011;41032;47.818;-3.732;2022-10-31T12:22:09;5.53;;;1.73;;
55136;SDS011;41032;47.818;-3.732;2022-10-31T12:27:10;7.57;;;1.98;;
55136;SDS011;41032;47.818;-3.732;2022-10-31T12:29:54;4.00;;;1.85;;
55136;SDS011;41032;47.818;-3.732;2022-10-31T12:41:22;4.05;;;1.92;;
55136;SDS011;41032;47.818;-3.732;2022-10-31T12:49:53;4.55;;;1.98;;
55136;SDS011;41032;47.818;-3.732;2022-10-31T12:55:41;3.15;;;1.65;;
55136;SDS011;41032;47.818;-3.732;2022-10-31T12:58:14;5.47;;;1.95;;
55136;SDS011;41032;47.818;-3.732;2022-10-31T13:00:55;4.68;;;1.77;;
55136;SDS011;41032;47.818;-3.732;2022-10-31T13:03:57;6.90;;;2.45;;
55136;SDS011;41032;47.818;-3.732;2022-10-31T13:06:38;6.57;;;2.00;;
55136;SDS011;41032;47.818;-3.732;2022-10-31T13:09:11;5.03;;;2.03;;
55136;SDS011;41032;47.818;-3.732;2022-10-31T13:11:44;4.50;;;2.00;;
55136;SDS011;41032;47.818;-3.732;2022-10-31T13:17:05;4.43;;;1.80;;
55136;SDS011;41032;47.818;-3.732;2022-10-31T13:19:48;3.42;;;1.50;;
55136;SDS011;41032;47.818;-3.732;2022-10-31T13:22:18;4.15;;;2.05;;
55136;SDS011;41032;47.818;-3.732;2022-10-31T13:25:37;6.13;;;2.05;;
55136;SDS011;41032;47.818;-3.732;2022-10-31T13:27:45;5.20;;;2.03;;
55136;SDS011;41032;47.818;-3.732;2022-10-31T13:30:19;5.95;;;1.95;;
55136;SDS011;41032;47.818;-3.732;2022-10-31T13:32:51;4.45;;;1.92;;
55136;SDS011;41032;47.818;-3.732;2022-10-31T13:38:15;6.60;;;2.20;;
55136;SDS011;41032;47.818;-3.732;2022-10-31T13:40:47;6.25;;;2.38;;
55136;SDS011;41032;47.818;-3.732;2022-10-31T13:45:54;2.33;;;1.25;;
55136;SDS011;41032;47.818;-3.732;2022-10-31T13:50:55;6.50;;;2.10;;
55136;SDS011;41032;47.818;-3.732;2022-10-31T13:53:36;7.15;;;2.58;;
55136;SDS011;41032;47.818;-3.732;2022-10-31T13:56:26;5.40;;;2.30;;
55136;SDS011;41032;47.818;-3.732;2022-10-31T13:58:57;6.80;;;2.15;;
55136;SDS011;41032;47.818;-3.732;2022-10-31T14:01:29;5.90;;;2.33;;
55136;SDS011;41032;47.818;-3.732;2022-10-31T14:03:59;6.80;;;2.38;;
55136;SDS011;41032;47.818;-3.732;2022-10-31T14:09:20;6.50;;;2.30;;
55136;SDS011;41032;47.818;-3.732;2022-10-31T14:11:52;7.25;;;2.50;;
55136;SDS011;41032;47.818;-3.732;2022-10-31T14:14:21;6.82;;;2.50;;
55136;SDS011;41032;47.818;-3.732;2022-10-31T14:16:55;6.75;;;2.10;;
55136;SDS011;41032;47.818;-3.732;2022-10-31T14:19:24;10.00;;;3.15;;
55136;SDS011;41032;47.818;-3.732;2022-10-31T14:21:54;6.22;;;2.53;;
55136;SDS011;41032;47.818;-3.732;2022-10-31T14:26:56;6.13;;;2.78;;
55136;SDS011;41032;47.818;-3.732;2022-10-31T14:29:26;6.03;;;2.55;;
55136;SDS011;41032;47.818;-3.732;2022-10-31T14:31:57;5.63;;;1.90;;
55136;SDS011;41032;47.818;-3.732;2022-10-31T14:45:37;7.93;;;2.53;;
55136;SDS011;41032;47.818;-3.732;2022-10-31T14:48:24;5.25;;;2.28;;
55136;SDS011;41032;47.818;-3.732;2022-10-31T14:51:18;8.57;;;2.40;;
55136;SDS011;41032;47.818;-3.732;2022-10-31T14:53:50;6.35;;;2.45;;
55136;SDS011;41032;47.818;-3.732;2022-10-31T14:56:23;6.93;;;2.03;;
55136;SDS011;41032;47.818;-3.732;2022-10-31T14:58:57;8.18;;;2.20;;
55136;SDS011;41032;47.818;-3.732;2022-10-31T15:01:28;5.20;;;2.30;;
55136;SDS011;41032;47.818;-3.732;2022-10-31T15:04:00;9.68;;;3.17;;
55136;SDS011;41032;47.818;-3.732;2022-10-31T15:15:13;7.88;;;2.35;;
55136;SDS011;41032;47.818;-3.732;2022-10-31T15:17:45;9.80;;;2.88;;
55136;SDS011;41032;47.818;-3.732;2022-10-31T15:20:18;7.78;;;2.20;;
55136;SDS011;41032;47.818;-3.732;2022-10-31T15:22:49;9.18;;;2.65;;
55136;SDS011;41032;47.818;-3.732;2022-10-31T15:25:18;4.47;;;2.00;;
55136;SDS011;41032;47.818;-3.732;2022-10-31T15:27:49;9.23;;;2.42;;
55136;SDS011;41032;47.818;-3.732;2022-10-31T15:30:18;5.95;;;1.90;;
55136;SDS011;41032;47.818;-3.732;2022-10-31T15:32:48;7.60;;;3.13;;
55136;SDS011;41032;47.818;-3.732;2022-10-31T15:35:26;4.90;;;1.90;;
55136;SDS011;41032;47.818;-3.732;2022-10-31T15:37:56;7.68;;;2.65;;
55136;SDS011;41032;47.818;-3.732;2022-10-31T15:40:27;7.75;;;2.22;;
55136;SDS011;41032;47.818;-3.732;2022-10-31T15:42:56;6.20;;;1.75;;
55136;SDS011;41032;47.818;-3.732;2022-10-31T15:45:27;9.25;;;2.30;;
55136;SDS011;41032;47.818;-3.732;2022-10-31T15:48:01;10.60;;;2.80;;
55136;SDS011;41032;47.818;-3.732;2022-10-31T15:50:31;6.13;;;2.40;;
55136;SDS011;41032;47.818;-3.732;2022-10-31T15:53:03;11.32;;;2.45;;
55136;SDS011;41032;47.818;-3.732;2022-10-31T15:55:35;7.25;;;1.95;;
55136;SDS011;41032;47.818;-3.732;2022-10-31T15:58:14;6.00;;;2.08;;
55136;SDS011;41032;47.818;-3.732;2022-10-31T16:00:44;6.10;;;1.90;;
55136;SDS011;41032;47.818;-3.732;2022-10-31T16:05:48;6.05;;;2.17;;
55136;SDS011;41032;47.818;-3.732;2022-10-31T16:08:36;7.80;;;2.08;;
55136;SDS011;41032;47.818;-3.732;2022-10-31T16:11:16;5.60;;;1.58;;
55136;SDS011;41032;47.818;-3.732;2022-10-31T16:16:20;6.45;;;2.00;;
55136;SDS011;41032;47.818;-3.732;2022-10-31T16:18:49;5.38;;;1.75;;
55136;SDS011;41032;47.818;-3.732;2022-10-31T16:21:42;6.15;;;2.05;;
55136;SDS011;41032;47.818;-3.732;2022-10-31T16:24:14;6.55;;;2.40;;
55136;SDS011;41032;47.818;-3.732;2022-10-31T16:26:47;13.07;;;6.30;;
55136;SDS011;41032;47.818;-3.732;2022-10-31T16:29:38;20.20;;;13.23;;
55136;SDS011;41032;47.818;-3.732;2022-10-31T16:32:22;30.95;;;22.45;;
55136;SDS011;41032;47.818;-3.732;2022-10-31T16:35:34;29.17;;;19.83;;
55136;SDS011;41032;47.818;-3.732;2022-10-31T16:37:39;25.65;;;17.23;;
55136;SDS011;41032;47.818;-3.732;2022-10-31T16:40:10;23.50;;;14.38;;
55136;SDS011;41032;47.818;-3.732;2022-10-31T16:42:39;24.92;;;13.45;;
55136;SDS011;41032;47.818;-3.732;2022-10-31T16:45:13;19.95;;;12.02;;
55136;SDS011;41032;47.818;-3.732;2022-10-31T16:47:44;20.20;;;10.48;;
55136;SDS011;41032;47.818;-3.732;2022-10-31T16:50:13;17.83;;;10.70;;
55136;SDS011;41032;47.818;-3.732;2022-10-31T16:52:51;16.35;;;9.40;;
55136;SDS011;41032;47.818;-3.732;2022-10-31T16:55:20;19.58;;;8.95;;
55136;SDS011;41032;47.818;-3.732;2022-10-31T16:57:50;15.75;;;7.60;;
55136;SDS011;41032;47.818;-3.732;2022-10-31T17:00:21;12.20;;;7.22;;
55136;SDS011;41032;47.818;-3.732;2022-10-31T17:02:51;15.05;;;8.10;;
55136;SDS011;41032;47.818;-3.732;2022-10-31T17:05:21;18.25;;;7.78;;